createdAt,value
2018-08-20T00:01:49.001Z,-70
2018-08-20T00:04:17.266Z,-72
2018-08-20T00:06:57.677Z,-71
2018-08-20T00:09:38.114Z,-71
2018-08-20T00:12:08.391Z,-70
2018-08-20T00:14:36.835Z,-70
2018-08-20T00:17:05.332Z,-73
2018-08-20T00:19:33.676Z,-70
2018-08-20T00:22:01.864Z,-70
2018-08-20T00:24:29.964Z,-69
2018-08-20T00:26:59.596Z,-69
2018-08-20T00:29:27.885Z,-70
2018-08-20T00:31:56.323Z,-70
2018-08-20T00:34:24.494Z,-70
2018-08-20T00:36:52.708Z,-69
2018-08-20T00:39:21.012Z,-69
2018-08-20T00:41:49.606Z,-68
2018-08-20T00:44:17.770Z,-71
2018-08-20T00:46:46.391Z,-69
2018-08-20T00:49:15.854Z,-69
2018-08-20T00:51:44.426Z,-69
2018-08-20T00:54:12.684Z,-70
2018-08-20T00:56:41.196Z,-69
2018-08-20T00:59:09.699Z,-70
2018-08-20T01:01:37.828Z,-70
2018-08-20T01:04:06.141Z,-71
2018-08-20T01:06:34.319Z,-71
2018-08-20T01:09:03.170Z,-70
2018-08-20T01:11:31.778Z,-71
2018-08-20T01:14:00.137Z,-70
2018-08-20T01:16:28.333Z,-71
2018-08-20T01:18:56.721Z,-70
2018-08-20T01:21:25.020Z,-70
2018-08-20T01:23:53.349Z,-69
2018-08-20T01:26:21.473Z,-70
2018-08-20T01:28:49.641Z,-69
2018-08-20T01:31:17.997Z,-69
2018-08-20T01:33:46.363Z,-70
2018-08-20T01:36:15.299Z,-70
2018-08-20T01:38:43.679Z,-70
2018-08-20T01:41:11.857Z,-70
2018-08-20T01:43:40.123Z,-69
2018-08-20T01:46:08.802Z,-69
2018-08-20T01:48:37.029Z,-71
2018-08-20T01:51:05.201Z,-70
2018-08-20T01:53:33.477Z,-70
2018-08-20T01:56:01.821Z,-69
2018-08-20T01:58:30.136Z,-69
2018-08-20T02:00:58.309Z,-70
2018-08-20T02:03:26.859Z,-70
2018-08-20T02:05:55.035Z,-69
2018-08-20T02:08:23.129Z,-70
2018-08-20T02:10:51.652Z,-70
2018-08-20T02:13:20.758Z,-69
2018-08-20T02:15:49.317Z,-69
2018-08-20T02:18:17.627Z,-69
2018-08-20T02:20:45.777Z,-70
2018-08-20T02:23:14.421Z,-69
2018-08-20T02:25:42.563Z,-69
2018-08-20T02:28:10.761Z,-69
2018-08-20T02:30:39.026Z,-68
2018-08-20T02:33:07.633Z,-70
2018-08-20T02:35:36.125Z,-69
2018-08-20T02:38:04.848Z,-68
2018-08-20T02:40:33.706Z,-68
2018-08-20T02:43:02.012Z,-69
2018-08-20T02:45:30.632Z,-69
2018-08-20T02:47:59.004Z,-70
2018-08-20T02:50:27.162Z,-69
2018-08-20T02:52:55.484Z,-68
2018-08-20T02:55:23.894Z,-70
2018-08-20T02:57:52.012Z,-68
2018-08-20T03:00:20.630Z,-67
2018-08-20T03:02:48.936Z,-69
2018-08-20T03:05:18.121Z,-68
2018-08-20T03:07:46.306Z,-69
2018-08-20T03:10:14.772Z,-70
2018-08-20T03:12:43.329Z,-69
2018-08-20T03:15:11.716Z,-69
2018-08-20T03:17:40.425Z,-69
2018-08-20T03:20:08.877Z,-69
2018-08-20T03:22:37.046Z,-69
2018-08-20T03:25:06.115Z,-70
2018-08-20T03:27:34.872Z,-70
2018-08-20T03:30:04.553Z,-69
2018-08-20T03:32:32.813Z,-71
2018-08-20T03:35:01.292Z,-69
2018-08-20T03:37:33.357Z,-69
2018-08-20T03:40:02.169Z,-71
2018-08-20T03:42:30.407Z,-70
2018-08-20T03:44:58.839Z,-70
2018-08-20T03:47:27.237Z,-68
2018-08-20T03:49:55.672Z,-69
2018-08-20T03:52:24.777Z,-69
2018-08-20T03:54:53.705Z,-69
2018-08-20T03:57:22.777Z,-69
2018-08-20T03:59:50.990Z,-69
2018-08-20T04:02:19.067Z,-70
2018-08-20T04:04:47.240Z,-68
2018-08-20T04:07:15.344Z,-70
2018-08-20T04:09:43.489Z,-69
2018-08-20T04:12:11.922Z,-70
2018-08-20T04:14:40.068Z,-71
2018-08-20T04:17:08.461Z,-70
2018-08-20T04:19:36.613Z,-71
2018-08-20T04:22:04.804Z,-69
2018-08-20T04:24:33.204Z,-68
2018-08-20T04:27:01.818Z,-69
2018-08-20T04:29:30.102Z,-68
2018-08-20T04:31:58.512Z,-67
2018-08-20T04:34:27.108Z,-69
2018-08-20T04:36:55.224Z,-67
2018-08-20T04:39:23.345Z,-68
2018-08-20T04:41:51.640Z,-69
2018-08-20T04:44:19.724Z,-68
2018-08-20T04:46:47.890Z,-69
2018-08-20T04:49:16.025Z,-67
2018-08-20T04:51:44.207Z,-70
2018-08-20T04:54:12.526Z,-69
2018-08-20T04:56:40.902Z,-68
2018-08-20T04:59:08.970Z,-68
2018-08-20T05:01:37.290Z,-69
2018-08-20T05:04:05.768Z,-68
2018-08-20T05:06:34.032Z,-69
2018-08-20T05:09:02.331Z,-69
2018-08-20T05:11:30.641Z,-69
2018-08-20T05:13:58.849Z,-70
2018-08-20T05:16:26.999Z,-67
2018-08-20T05:18:55.244Z,-69
2018-08-20T05:21:23.450Z,-68
2018-08-20T05:23:51.585Z,-69
2018-08-20T05:26:20.369Z,-71
2018-08-20T05:28:48.555Z,-67
2018-08-20T05:31:16.692Z,-68
2018-08-20T05:33:44.858Z,-69
2018-08-20T05:36:13.093Z,-77
2018-08-20T05:38:41.158Z,-74
2018-08-20T05:41:09.375Z,-73
2018-08-20T05:43:37.502Z,-73
2018-08-20T05:46:06.085Z,-74
2018-08-20T05:48:34.344Z,-75
2018-08-20T05:51:02.501Z,-74
2018-08-20T05:53:30.826Z,-75
2018-08-20T05:55:59.041Z,-74
2018-08-20T05:58:27.235Z,-74
2018-08-20T06:00:55.662Z,-74
2018-08-20T06:03:23.921Z,-73
2018-08-20T06:05:52.321Z,-74
2018-08-20T06:08:20.464Z,-74
2018-08-20T06:10:48.797Z,-73
2018-08-20T06:13:17.064Z,-74
2018-08-20T06:15:45.252Z,-75
2018-08-20T06:18:13.468Z,-74
2018-08-20T06:20:41.750Z,-73
2018-08-20T06:23:10.110Z,-73
2018-08-20T06:25:39.000Z,-73
2018-08-20T06:28:07.254Z,-74
2018-08-20T06:30:35.501Z,-76
2018-08-20T06:33:04.444Z,-75
2018-08-20T06:35:32.572Z,-74
2018-08-20T06:38:01.079Z,-73
2018-08-20T06:40:29.982Z,-74
2018-08-20T06:42:58.129Z,-74
2018-08-20T06:45:26.221Z,-74
2018-08-20T06:47:54.389Z,-74
2018-08-20T06:50:22.653Z,-73
2018-08-20T06:52:50.811Z,-75
2018-08-20T06:55:18.901Z,-74
2018-08-20T06:57:47.106Z,-75
2018-08-20T07:00:15.451Z,-75
2018-08-20T07:02:43.542Z,-73
2018-08-20T07:05:18.365Z,-74
2018-08-20T07:07:46.678Z,-77
2018-08-20T07:10:14.979Z,-75
2018-08-20T07:12:43.236Z,-72
2018-08-20T07:15:14.346Z,-73
2018-08-20T07:17:42.636Z,-73
2018-08-20T07:20:12.954Z,-75
2018-08-20T07:22:41.200Z,-74
2018-08-20T07:25:09.455Z,-74
2018-08-20T07:27:38.000Z,-74
2018-08-20T07:30:09.751Z,-74
2018-08-20T07:32:37.967Z,-75
2018-08-20T07:35:06.577Z,-74
2018-08-20T07:37:35.435Z,-73
2018-08-20T07:40:05.139Z,-75
2018-08-20T07:42:33.448Z,-74
2018-08-20T07:45:01.557Z,-73
2018-08-20T07:47:29.706Z,-73
2018-08-20T07:49:57.909Z,-76
2018-08-20T07:52:26.071Z,-74
2018-08-20T07:54:54.193Z,-73
2018-08-20T07:57:22.364Z,-74
2018-08-20T07:59:50.487Z,-73
2018-08-20T08:02:18.728Z,-74
2018-08-20T08:04:46.925Z,-75
2018-08-20T08:07:15.208Z,-75
2018-08-20T08:09:43.408Z,-74
2018-08-20T08:12:11.584Z,-75
2018-08-20T08:14:39.780Z,-74
2018-08-20T08:17:08.723Z,-77
2018-08-20T08:19:36.937Z,-78
2018-08-20T08:22:05.307Z,-74
2018-08-20T08:24:33.562Z,-73
2018-08-20T08:27:02.707Z,-74
2018-08-20T08:29:30.968Z,-76
2018-08-20T08:31:59.433Z,-74
2018-08-20T08:34:27.656Z,-74
2018-08-20T08:36:55.850Z,-75
2018-08-20T08:39:24.000Z,-74
2018-08-20T08:41:52.216Z,-73
2018-08-20T08:44:20.410Z,-73
2018-08-20T08:46:48.656Z,-74
2018-08-20T08:49:16.938Z,-74
2018-08-20T08:51:45.117Z,-74
2018-08-20T08:54:13.390Z,-75
2018-08-20T08:56:41.631Z,-73
2018-08-20T08:59:10.130Z,-73
2018-08-20T09:01:38.296Z,-73
2018-08-20T09:04:06.869Z,-74
2018-08-20T09:06:35.043Z,-75
2018-08-20T09:09:03.705Z,-75
2018-08-20T09:11:31.915Z,-75
2018-08-20T09:14:00.049Z,-73
2018-08-20T09:16:28.190Z,-73
2018-08-20T09:18:56.275Z,-75
2018-08-20T09:21:24.501Z,-75
2018-08-20T09:23:52.745Z,-73
2018-08-20T09:26:21.139Z,-74
2018-08-20T09:28:49.289Z,-73
2018-08-20T09:31:17.519Z,-75
2018-08-20T09:33:45.730Z,-74
2018-08-20T09:36:13.869Z,-74
2018-08-20T09:38:41.983Z,-73
2018-08-20T09:41:10.230Z,-74
2018-08-20T09:43:38.491Z,-74
2018-08-20T09:46:06.741Z,-75
2018-08-20T09:48:34.976Z,-74
2018-08-20T09:51:03.159Z,-73
2018-08-20T09:53:31.305Z,-75
2018-08-20T09:55:59.605Z,-76
2018-08-20T09:58:27.862Z,-74
2018-08-20T10:00:56.028Z,-75
2018-08-20T10:03:24.219Z,-74
2018-08-20T10:05:52.551Z,-75
2018-08-20T10:08:20.815Z,-76
2018-08-20T10:10:48.944Z,-74
2018-08-20T10:13:17.222Z,-75
2018-08-20T10:15:45.442Z,-74
2018-08-20T10:18:14.338Z,-74
2018-08-20T10:20:42.545Z,-76
2018-08-20T10:23:10.667Z,-74
2018-08-20T10:25:38.782Z,-75
2018-08-20T10:28:07.032Z,-74
2018-08-20T10:30:35.306Z,-75
2018-08-20T10:33:03.456Z,-75
2018-08-20T10:35:31.577Z,-76
2018-08-20T10:38:00.044Z,-74
2018-08-20T10:40:28.248Z,-75
2018-08-20T10:42:56.403Z,-75
2018-08-20T10:45:30.251Z,-75
2018-08-20T10:47:58.423Z,-74
2018-08-20T10:50:26.587Z,-75
2018-08-20T10:52:54.711Z,-74
2018-08-20T10:55:22.879Z,-75
2018-08-20T10:57:50.986Z,-74
2018-08-20T11:00:19.194Z,-75
2018-08-20T11:02:47.272Z,-74
2018-08-20T11:05:17.774Z,-74
2018-08-20T11:07:46.269Z,-75
2018-08-20T11:10:14.581Z,-75
2018-08-20T11:12:42.646Z,-74
2018-08-20T11:15:11.631Z,-75
2018-08-20T11:17:39.875Z,-75
2018-08-20T11:20:13.268Z,-73
2018-08-20T11:22:41.885Z,-74
2018-08-20T11:25:11.017Z,-74
2018-08-20T11:27:39.336Z,-72
2018-08-20T11:30:09.960Z,-75
2018-08-20T11:32:38.227Z,-75
2018-08-20T11:35:07.249Z,-74
2018-08-20T11:37:35.445Z,-75
2018-08-20T11:40:04.380Z,-74
2018-08-20T11:42:32.614Z,-74
2018-08-20T11:45:00.785Z,-75
2018-08-20T11:47:28.977Z,-77
2018-08-20T11:49:57.735Z,-74
2018-08-20T11:52:25.969Z,-75
2018-08-20T11:54:54.138Z,-74
2018-08-20T11:57:22.254Z,-73
2018-08-20T11:59:50.360Z,-73
2018-08-20T12:02:18.677Z,-74
2018-08-20T12:04:46.857Z,-74
2018-08-20T12:07:15.197Z,-74
2018-08-20T12:09:43.389Z,-74
2018-08-20T12:12:11.538Z,-76
2018-08-20T12:14:40.737Z,-75
2018-08-20T12:17:08.930Z,-73
2018-08-20T12:19:36.991Z,-75
2018-08-20T12:22:05.254Z,-74
2018-08-20T12:24:33.532Z,-75
2018-08-20T12:27:01.739Z,-73
2018-08-20T12:29:29.883Z,-73
2018-08-20T12:31:58.140Z,-76
2018-08-20T12:34:26.293Z,-74
2018-08-20T12:36:54.377Z,-74
2018-08-20T12:39:22.658Z,-75
2018-08-20T12:41:50.810Z,-74
2018-08-20T12:44:18.951Z,-74
2018-08-20T12:46:47.161Z,-74
2018-08-20T12:49:15.283Z,-74
2018-08-20T12:51:43.441Z,-74
2018-08-20T12:54:11.568Z,-74
2018-08-20T12:56:40.451Z,-73
2018-08-20T12:59:08.745Z,-74
2018-08-20T13:01:36.935Z,-75
2018-08-20T13:04:05.181Z,-74
2018-08-20T13:06:33.303Z,-74
2018-08-20T13:09:01.543Z,-74
2018-08-20T13:11:29.734Z,-74
2018-08-20T13:13:57.851Z,-73
2018-08-20T13:16:26.119Z,-73
2018-08-20T13:18:54.240Z,-74
2018-08-20T13:21:22.381Z,-75
2018-08-20T13:23:50.526Z,-75
2018-08-20T13:26:18.668Z,-76
2018-08-20T13:28:49.792Z,-74
2018-08-20T13:31:17.952Z,-74
2018-08-20T13:33:46.234Z,-74
2018-08-20T13:36:14.472Z,-75
2018-08-20T13:38:42.694Z,-74
2018-08-20T13:41:10.787Z,-74
2018-08-20T13:43:39.000Z,-75
2018-08-20T13:46:07.236Z,-74
2018-08-20T13:48:35.530Z,-74
2018-08-20T13:51:03.728Z,-74
2018-08-20T13:53:31.930Z,-74
2018-08-20T13:56:00.084Z,-73
2018-08-20T13:58:28.330Z,-75
2018-08-20T14:00:56.581Z,-74
2018-08-20T14:03:24.866Z,-74
2018-08-20T14:05:52.957Z,-75
2018-08-20T14:08:21.335Z,-75
2018-08-20T14:10:49.463Z,-76
2018-08-20T14:13:17.608Z,-74
2018-08-20T14:15:45.957Z,-75
2018-08-20T14:18:14.161Z,-73
2018-08-20T14:21:25.344Z,-75
2018-08-20T14:23:53.590Z,-74
2018-08-20T14:26:21.779Z,-73
2018-08-20T14:28:50.014Z,-74
2018-08-20T14:31:18.305Z,-75
2018-08-20T14:33:46.557Z,-72
2018-08-20T14:36:14.693Z,-74
2018-08-20T14:38:42.879Z,-73
2018-08-20T14:41:11.090Z,-75
2018-08-20T14:43:40.063Z,-74
2018-08-20T14:46:13.967Z,-75
2018-08-20T14:48:42.111Z,-73
2018-08-20T14:51:10.251Z,-74
2018-08-20T14:53:38.417Z,-75
2018-08-20T14:56:06.545Z,-76
2018-08-20T14:58:34.785Z,-74
2018-08-20T15:01:02.957Z,-74
2018-08-20T15:03:31.473Z,-74
2018-08-20T15:05:59.641Z,-73
2018-08-20T15:08:27.755Z,-74
2018-08-20T15:10:55.901Z,-74
2018-08-20T15:13:24.017Z,-74
2018-08-20T15:15:52.162Z,-74
2018-08-20T15:18:20.392Z,-73
2018-08-20T15:20:48.597Z,-73
2018-08-20T15:23:16.751Z,-74
2018-08-20T15:25:44.837Z,-74
2018-08-20T15:28:12.928Z,-75
2018-08-20T15:30:41.058Z,-74
2018-08-20T15:33:09.208Z,-74
2018-08-20T15:35:37.448Z,-75
2018-08-20T15:38:05.621Z,-75
2018-08-20T15:40:33.704Z,-75
2018-08-20T15:43:01.791Z,-75
2018-08-20T15:45:29.934Z,-76
2018-08-20T15:47:58.074Z,-75
2018-08-20T15:50:26.225Z,-73
2018-08-20T15:52:54.703Z,-75
2018-08-20T15:55:22.786Z,-75
2018-08-20T15:57:50.913Z,-74
2018-08-20T16:00:19.065Z,-74
2018-08-20T16:02:47.201Z,-74
2018-08-20T16:05:15.470Z,-76
2018-08-20T16:07:43.677Z,-74
2018-08-20T16:10:12.197Z,-74
2018-08-20T16:12:41.172Z,-75
2018-08-20T16:15:09.845Z,-74
2018-08-20T16:17:38.239Z,-73
2018-08-20T16:20:07.093Z,-74
2018-08-20T16:22:35.447Z,-74
2018-08-20T16:25:04.638Z,-75
2018-08-20T16:27:33.025Z,-73
2018-08-20T16:30:02.041Z,-75
2018-08-20T16:32:30.141Z,-74
2018-08-20T16:34:58.336Z,-75
2018-08-20T16:37:26.645Z,-75
2018-08-20T16:39:54.817Z,-74
2018-08-20T16:42:22.920Z,-74
2018-08-20T16:44:51.205Z,-75
2018-08-20T16:47:19.301Z,-74
2018-08-20T16:49:47.517Z,-74
2018-08-20T16:52:16.564Z,-76
2018-08-20T16:54:44.752Z,-75
2018-08-20T16:57:12.951Z,-69
2018-08-20T16:59:41.257Z,-70
2018-08-20T17:02:14.957Z,-71
2018-08-20T17:04:43.236Z,-69
2018-08-20T17:07:11.743Z,-69
2018-08-20T17:09:40.060Z,-70
2018-08-20T17:12:08.911Z,-70
2018-08-20T17:14:37.218Z,-68
2018-08-20T17:17:05.711Z,-69
2018-08-20T17:19:34.238Z,-69
2018-08-20T17:22:02.640Z,-68
2018-08-20T17:24:36.836Z,-71
2018-08-20T17:27:05.197Z,-70
2018-08-20T17:29:33.446Z,-69
2018-08-20T17:32:03.051Z,-70
2018-08-20T17:34:31.267Z,-68
2018-08-20T17:36:59.644Z,-67
2018-08-20T17:39:27.862Z,-68
2018-08-20T17:41:56.688Z,-70
2018-08-20T17:44:24.885Z,-69
2018-08-20T17:46:53.056Z,-69
2018-08-20T17:49:26.985Z,-76
2018-08-20T17:51:55.132Z,-78
2018-08-20T17:54:23.562Z,-76
2018-08-20T17:56:51.664Z,-77
2018-08-20T17:59:22.510Z,-75
2018-08-20T18:01:50.832Z,-75
2018-08-20T18:04:19.009Z,-75
2018-08-20T18:06:55.330Z,-77
2018-08-20T18:09:23.536Z,-77
2018-08-20T18:11:52.858Z,-76
2018-08-20T18:14:22.202Z,-76
2018-08-20T18:16:50.519Z,-75
2018-08-20T18:19:18.755Z,-79
2018-08-20T18:21:47.275Z,-77
2018-08-20T18:24:18.431Z,-76
2018-08-20T18:26:48.095Z,-77
2018-08-20T18:29:16.676Z,-76
2018-08-20T18:31:44.933Z,-75
2018-08-20T18:34:13.161Z,-76
2018-08-20T18:36:41.425Z,-79
2018-08-20T18:39:12.115Z,-76
2018-08-20T18:42:15.059Z,-76
2018-08-20T18:44:44.195Z,-76
2018-08-20T18:47:13.855Z,-75
2018-08-20T18:49:50.306Z,-74
2018-08-20T18:52:20.341Z,-75
2018-08-20T18:54:56.123Z,-74
2018-08-20T18:57:27.535Z,-78
2018-08-20T18:59:58.027Z,-77
2018-08-20T19:02:55.885Z,-75
2018-08-20T19:05:24.190Z,-74
2018-08-20T19:07:52.470Z,-74
2018-08-20T19:10:31.382Z,-77
2018-08-20T19:13:00.396Z,-78
2018-08-20T19:15:36.484Z,-77
2018-08-20T19:18:06.888Z,-76
2018-08-20T19:20:35.388Z,-75
2018-08-20T19:23:03.626Z,-75
2018-08-20T19:25:31.880Z,-76
2018-08-20T19:28:05.914Z,-70
2018-08-20T19:30:34.178Z,-70
2018-08-20T19:33:04.136Z,-72
2018-08-20T19:35:32.563Z,-71
2018-08-20T19:38:00.909Z,-71
2018-08-20T19:40:29.124Z,-71
2018-08-20T19:42:57.256Z,-71
2018-08-20T19:45:29.913Z,-70
2018-08-20T19:47:58.116Z,-71
2018-08-20T19:50:26.273Z,-71
2018-08-20T19:52:54.585Z,-69
2018-08-20T19:55:22.789Z,-72
2018-08-20T19:57:51.255Z,-70
2018-08-20T20:00:19.465Z,-70
2018-08-20T20:02:47.633Z,-69
2018-08-20T20:05:15.842Z,-70
2018-08-20T20:07:55.685Z,-69
2018-08-20T20:10:23.952Z,-70
2018-08-20T20:12:54.716Z,-70
2018-08-20T20:15:25.799Z,-69
2018-08-20T20:17:55.333Z,-69
2018-08-20T20:20:24.217Z,-69
2018-08-20T20:22:52.815Z,-71
2018-08-20T20:25:21.023Z,-71
2018-08-20T20:27:50.647Z,-72
2018-08-20T20:30:18.805Z,-71
2018-08-20T20:32:46.984Z,-71
2018-08-20T20:35:15.341Z,-71
2018-08-20T20:37:43.499Z,-71
2018-08-20T20:40:11.694Z,-71
2018-08-20T20:42:40.552Z,-71
2018-08-20T20:45:08.889Z,-71
2018-08-20T20:47:37.217Z,-73
2018-08-20T20:50:05.527Z,-72
2018-08-20T20:52:33.683Z,-73
2018-08-20T20:55:02.116Z,-72
2018-08-20T20:57:30.298Z,-71
2018-08-20T20:59:59.316Z,-72
2018-08-20T21:02:27.557Z,-71
2018-08-20T21:05:00.367Z,-70
2018-08-20T21:07:32.724Z,-72
2018-08-20T21:10:01.534Z,-71
2018-08-20T21:12:30.766Z,-73
2018-08-20T21:14:59.028Z,-75
2018-08-20T21:17:27.296Z,-72
2018-08-20T21:19:55.675Z,-74
2018-08-20T21:22:24.022Z,-75
2018-08-20T21:24:52.296Z,-74
2018-08-20T21:27:27.475Z,-74
2018-08-20T21:29:59.364Z,-72
2018-08-20T21:32:27.848Z,-73
2018-08-20T21:34:56.220Z,-73
2018-08-20T21:37:24.460Z,-75
2018-08-20T21:39:52.797Z,-74
2018-08-20T21:42:33.098Z,-73
2018-08-20T21:45:01.431Z,-74
2018-08-20T21:47:30.688Z,-74
2018-08-20T21:49:58.840Z,-74
2018-08-20T21:52:27.010Z,-74
2018-08-20T21:54:55.812Z,-74
2018-08-20T21:57:24.206Z,-74
2018-08-20T22:00:06.828Z,-69
2018-08-20T22:02:35.324Z,-69
2018-08-20T22:05:05.465Z,-68
2018-08-20T22:07:35.712Z,-70
2018-08-20T22:10:04.833Z,-69
2018-08-20T22:12:32.972Z,-69
2018-08-20T22:15:01.177Z,-68
2018-08-20T22:17:30.410Z,-68
2018-08-20T22:19:59.345Z,-68
2018-08-20T22:22:27.874Z,-69
2018-08-20T22:24:59.164Z,-68
2018-08-20T22:27:28.620Z,-67
2018-08-20T22:30:01.489Z,-68
2018-08-20T22:32:30.221Z,-68
2018-08-20T22:34:58.859Z,-67
2018-08-20T22:37:27.157Z,-67
2018-08-20T22:40:01.024Z,-69
2018-08-20T22:42:45.435Z,-69
2018-08-20T22:45:16.117Z,-68
2018-08-20T22:47:46.361Z,-68
2018-08-20T22:50:14.716Z,-69
2018-08-20T22:52:47.853Z,-69
2018-08-20T22:55:17.661Z,-68
2018-08-20T22:58:05.117Z,-69
2018-08-20T23:00:33.632Z,-68
2018-08-20T23:03:01.821Z,-69
2018-08-20T23:05:31.531Z,-67
2018-08-20T23:08:11.570Z,-69
2018-08-20T23:10:42.225Z,-69
2018-08-20T23:13:10.511Z,-68
2018-08-20T23:15:38.879Z,-68
2018-08-20T23:18:07.487Z,-68
2018-08-20T23:20:35.767Z,-68
2018-08-20T23:23:04.175Z,-69
2018-08-20T23:25:32.398Z,-68
2018-08-20T23:28:00.633Z,-68
2018-08-20T23:30:28.804Z,-68
2018-08-20T23:32:57.692Z,-68
2018-08-20T23:35:25.937Z,-69
2018-08-20T23:37:54.186Z,-68
2018-08-20T23:40:22.547Z,-68
2018-08-20T23:42:50.944Z,-68
2018-08-20T23:45:19.164Z,-68
2018-08-20T23:47:47.559Z,-68
2018-08-20T23:50:15.735Z,-68
2018-08-20T23:52:43.878Z,-69
2018-08-20T23:55:12.012Z,-70
2018-08-20T23:57:40.377Z,-68
